sensor_id;sensor_type;location;lat;lon;timestamp;pressure;altitude;pressure_sealevel;temperature;humidity
56713;BME280;42589;45.536;9.032;2022-10-23T00:01:40;100170.25;;;25.98;48.26
56713;BME280;42589;45.536;9.032;2022-10-23T00:04:41;100166.44;;;25.99;48.13
56713;BME280;42589;45.536;9.032;2022-10-23T00:07:43;100166.72;;;26.14;47.30
56713;BME280;42589;45.536;9.032;2022-10-23T00:10:43;100165.38;;;26.00;47.93
56713;BME280;42589;45.536;9.032;2022-10-23T00:13:44;100173.16;;;26.42;46.99
56713;BME280;42589;45.536;9.032;2022-10-23T00:16:46;100173.00;;;26.14;47.32
56713;BME280;42589;45.536;9.032;2022-10-23T00:19:47;100167.53;;;25.98;47.31
56713;BME280;42589;45.536;9.032;2022-10-23T00:22:47;100166.91;;;26.24;47.08
56713;BME280;42589;45.536;9.032;2022-10-23T00:25:48;100168.38;;;26.32;46.85
56713;BME280;42589;45.536;9.032;2022-10-23T00:28:49;100173.16;;;26.25;47.04
56713;BME280;42589;45.536;9.032;2022-10-23T00:31:50;100168.03;;;26.11;47.14
56713;BME280;42589;45.536;9.032;2022-10-23T00:34:51;100170.00;;;26.16;47.65
56713;BME280;42589;45.536;9.032;2022-10-23T00:37:53;100171.75;;;26.22;47.35
56713;BME280;42589;45.536;9.032;2022-10-23T00:40:53;100173.44;;;26.23;47.10
56713;BME280;42589;45.536;9.032;2022-10-23T00:43:56;100175.78;;;26.03;47.71
56713;BME280;42589;45.536;9.032;2022-10-23T00:46:57;100168.69;;;26.02;47.37
56713;BME280;42589;45.536;9.032;2022-10-23T00:49:58;100173.06;;;26.03;47.99
56713;BME280;42589;45.536;9.032;2022-10-23T00:53:01;100175.13;;;26.12;47.53
56713;BME280;42589;45.536;9.032;2022-10-23T00:56:03;100182.41;;;26.24;47.27
56713;BME280;42589;45.536;9.032;2022-10-23T00:59:03;100188.84;;;26.17;46.75
56713;BME280;42589;45.536;9.032;2022-10-23T01:02:04;100179.03;;;26.33;46.92
56713;BME280;42589;45.536;9.032;2022-10-23T01:05:05;100185.75;;;26.43;46.66
56713;BME280;42589;45.536;9.032;2022-10-23T01:11:26;100188.69;;;26.41;46.47
56713;BME280;42589;45.536;9.032;2022-10-23T01:17:38;100190.81;;;26.05;46.83
56713;BME280;42589;45.536;9.032;2022-10-23T01:20:45;100182.16;;;25.68;48.24
56713;BME280;42589;45.536;9.032;2022-10-23T01:24:02;100177.34;;;25.58;49.26
56713;BME280;42589;45.536;9.032;2022-10-23T01:30:11;100164.97;;;25.51;49.58
56713;BME280;42589;45.536;9.032;2022-10-23T01:33:13;100159.97;;;25.19;49.30
56713;BME280;42589;45.536;9.032;2022-10-23T01:36:15;100161.31;;;25.85;48.37
56713;BME280;42589;45.536;9.032;2022-10-23T01:39:20;100162.03;;;25.81;48.70
56713;BME280;42589;45.536;9.032;2022-10-23T01:42:26;100158.75;;;25.67;48.84
56713;BME280;42589;45.536;9.032;2022-10-23T01:45:35;100166.59;;;25.92;47.82
56713;BME280;42589;45.536;9.032;2022-10-23T01:48:38;100164.94;;;25.91;48.35
56713;BME280;42589;45.536;9.032;2022-10-23T01:51:39;100165.00;;;25.39;48.84
56713;BME280;42589;45.536;9.032;2022-10-23T01:54:41;100163.25;;;25.21;50.78
56713;BME280;42589;45.536;9.032;2022-10-23T01:57:43;100160.72;;;25.43;49.55
56713;BME280;42589;45.536;9.032;2022-10-23T02:00:44;100167.03;;;25.32;49.39
56713;BME280;42589;45.536;9.032;2022-10-23T02:03:46;100178.19;;;25.59;49.32
56713;BME280;42589;45.536;9.032;2022-10-23T02:06:47;100177.38;;;25.46;50.10
56713;BME280;42589;45.536;9.032;2022-10-23T02:09:48;100160.06;;;25.24;49.71
56713;BME280;42589;45.536;9.032;2022-10-23T02:16:05;100147.41;;;25.58;49.65
56713;BME280;42589;45.536;9.032;2022-10-23T02:19:30;100156.97;;;25.32;49.31
56713;BME280;42589;45.536;9.032;2022-10-23T02:22:38;100149.97;;;25.36;49.75
56713;BME280;42589;45.536;9.032;2022-10-23T02:25:50;100147.91;;;25.15;50.08
56713;BME280;42589;45.536;9.032;2022-10-23T02:28:58;100149.75;;;25.38;49.35
56713;BME280;42589;45.536;9.032;2022-10-23T02:32:00;100141.16;;;25.17;49.28
56713;BME280;42589;45.536;9.032;2022-10-23T02:35:01;100144.56;;;25.24;49.47
56713;BME280;42589;45.536;9.032;2022-10-23T02:38:02;100155.84;;;25.57;48.95
56713;BME280;42589;45.536;9.032;2022-10-23T02:41:15;100154.25;;;25.73;48.38
56713;BME280;42589;45.536;9.032;2022-10-23T02:50:43;100145.59;;;25.76;47.83
56713;BME280;42589;45.536;9.032;2022-10-23T02:59:59;100154.97;;;25.97;47.41
56713;BME280;42589;45.536;9.032;2022-10-23T03:03:02;100152.06;;;25.86;47.62
56713;BME280;42589;45.536;9.032;2022-10-23T03:06:06;100157.19;;;25.83;47.80
56713;BME280;42589;45.536;9.032;2022-10-23T03:09:09;100145.63;;;25.92;48.07
56713;BME280;42589;45.536;9.032;2022-10-23T03:12:30;100147.28;;;25.93;47.93
56713;BME280;42589;45.536;9.032;2022-10-23T03:15:30;100142.47;;;25.84;47.93
56713;BME280;42589;45.536;9.032;2022-10-23T03:18:31;100137.44;;;25.35;49.62
56713;BME280;42589;45.536;9.032;2022-10-23T03:21:32;100143.91;;;25.75;48.33
56713;BME280;42589;45.536;9.032;2022-10-23T03:24:32;100142.16;;;25.68;48.25
56713;BME280;42589;45.536;9.032;2022-10-23T03:27:33;100151.75;;;26.00;47.68
56713;BME280;42589;45.536;9.032;2022-10-23T03:30:33;100169.06;;;25.93;48.06
56713;BME280;42589;45.536;9.032;2022-10-23T03:33:34;100161.34;;;26.19;46.87
56713;BME280;42589;45.536;9.032;2022-10-23T03:36:35;100158.94;;;25.77;48.71
56713;BME280;42589;45.536;9.032;2022-10-23T03:39:36;100151.25;;;26.03;47.87
56713;BME280;42589;45.536;9.032;2022-10-23T03:42:37;100153.44;;;26.17;47.44
56713;BME280;42589;45.536;9.032;2022-10-23T03:45:38;100161.59;;;26.17;47.57
56713;BME280;42589;45.536;9.032;2022-10-23T03:48:38;100160.78;;;26.17;47.65
56713;BME280;42589;45.536;9.032;2022-10-23T03:51:38;100164.66;;;26.21;47.53
56713;BME280;42589;45.536;9.032;2022-10-23T03:54:40;100168.69;;;26.19;47.11
56713;BME280;42589;45.536;9.032;2022-10-23T03:57:41;100157.47;;;25.98;47.68
56713;BME280;42589;45.536;9.032;2022-10-23T04:00:42;100146.97;;;25.50;48.78
56713;BME280;42589;45.536;9.032;2022-10-23T04:03:43;100143.69;;;25.47;48.52
56713;BME280;42589;45.536;9.032;2022-10-23T04:06:44;100144.34;;;25.55;49.06
56713;BME280;42589;45.536;9.032;2022-10-23T04:09:44;100129.00;;;25.77;48.57
56713;BME280;42589;45.536;9.032;2022-10-23T04:12:45;100147.22;;;25.48;49.66
56713;BME280;42589;45.536;9.032;2022-10-23T04:15:50;100144.81;;;25.63;49.67
56713;BME280;42589;45.536;9.032;2022-10-23T04:18:51;100147.34;;;25.53;49.79
56713;BME280;42589;45.536;9.032;2022-10-23T04:21:51;100163.34;;;25.38;49.41
56713;BME280;42589;45.536;9.032;2022-10-23T04:24:52;100158.59;;;25.74;48.90
56713;BME280;42589;45.536;9.032;2022-10-23T04:27:53;100176.31;;;26.16;48.40
56713;BME280;42589;45.536;9.032;2022-10-23T04:30:54;100167.38;;;26.21;47.79
56713;BME280;42589;45.536;9.032;2022-10-23T04:33:55;100169.19;;;26.15;47.67
56713;BME280;42589;45.536;9.032;2022-10-23T04:36:55;100179.25;;;25.98;48.92
56713;BME280;42589;45.536;9.032;2022-10-23T04:39:56;100177.47;;;25.63;48.93
56713;BME280;42589;45.536;9.032;2022-10-23T04:42:56;100173.34;;;25.89;49.00
56713;BME280;42589;45.536;9.032;2022-10-23T04:45:58;100166.44;;;25.70;49.34
56713;BME280;42589;45.536;9.032;2022-10-23T04:48:58;100163.53;;;25.88;49.05
56713;BME280;42589;45.536;9.032;2022-10-23T04:51:59;100174.13;;;25.73;49.21
56713;BME280;42589;45.536;9.032;2022-10-23T04:55:02;100157.34;;;25.93;49.06
56713;BME280;42589;45.536;9.032;2022-10-23T04:58:03;100168.41;;;25.46;49.98
56713;BME280;42589;45.536;9.032;2022-10-23T05:01:04;100167.28;;;25.59;49.94
56713;BME280;42589;45.536;9.032;2022-10-23T05:04:06;100163.56;;;25.48;49.66
56713;BME280;42589;45.536;9.032;2022-10-23T05:07:06;100154.00;;;25.34;51.16
56713;BME280;42589;45.536;9.032;2022-10-23T05:10:07;100156.47;;;25.76;49.31
56713;BME280;42589;45.536;9.032;2022-10-23T05:13:08;100166.75;;;25.85;48.67
56713;BME280;42589;45.536;9.032;2022-10-23T05:16:10;100154.94;;;25.68;49.33
56713;BME280;42589;45.536;9.032;2022-10-23T05:19:13;100157.44;;;25.69;49.14
56713;BME280;42589;45.536;9.032;2022-10-23T05:22:18;100165.84;;;25.28;51.34
56713;BME280;42589;45.536;9.032;2022-10-23T05:25:19;100162.84;;;25.81;49.56
56713;BME280;42589;45.536;9.032;2022-10-23T05:28:23;100158.34;;;25.75;49.81
56713;BME280;42589;45.536;9.032;2022-10-23T05:31:27;100158.81;;;25.84;49.50
56713;BME280;42589;45.536;9.032;2022-10-23T05:34:28;100152.25;;;25.28;51.37
56713;BME280;42589;45.536;9.032;2022-10-23T05:37:30;100168.69;;;25.33;50.76
56713;BME280;42589;45.536;9.032;2022-10-23T05:40:31;100170.44;;;25.39;50.45
56713;BME280;42589;45.536;9.032;2022-10-23T05:43:33;100171.88;;;25.30;51.24
56713;BME280;42589;45.536;9.032;2022-10-23T05:46:34;100175.19;;;25.32;49.71
56713;BME280;42589;45.536;9.032;2022-10-23T05:49:42;100172.69;;;25.30;50.15
56713;BME280;42589;45.536;9.032;2022-10-23T05:52:45;100169.59;;;25.50;50.23
56713;BME280;42589;45.536;9.032;2022-10-23T05:55:45;100169.63;;;25.27;49.97
56713;BME280;42589;45.536;9.032;2022-10-23T05:58:46;100176.97;;;25.38;50.75
56713;BME280;42589;45.536;9.032;2022-10-23T06:01:50;100180.63;;;25.08;50.78
56713;BME280;42589;45.536;9.032;2022-10-23T06:04:51;100180.91;;;25.18;49.97
56713;BME280;42589;45.536;9.032;2022-10-23T06:07:55;100181.31;;;25.39;50.15
56713;BME280;42589;45.536;9.032;2022-10-23T06:10:56;100191.28;;;24.98;50.73
56713;BME280;42589;45.536;9.032;2022-10-23T06:13:57;100207.97;;;24.90;50.79
56713;BME280;42589;45.536;9.032;2022-10-23T06:16:59;100201.00;;;24.94;50.39
56713;BME280;42589;45.536;9.032;2022-10-23T06:20:00;100203.00;;;24.98;50.67
56713;BME280;42589;45.536;9.032;2022-10-23T06:23:01;100206.53;;;25.34;49.62
56713;BME280;42589;45.536;9.032;2022-10-23T06:26:02;100208.19;;;25.35;49.61
56713;BME280;42589;45.536;9.032;2022-10-23T06:29:12;100213.06;;;25.85;48.63
56713;BME280;42589;45.536;9.032;2022-10-23T06:32:15;100230.84;;;25.64;48.72
56713;BME280;42589;45.536;9.032;2022-10-23T06:35:16;100231.03;;;25.86;48.64
56713;BME280;42589;45.536;9.032;2022-10-23T06:38:16;100228.50;;;25.97;48.30
56713;BME280;42589;45.536;9.032;2022-10-23T06:41:19;100223.13;;;25.73;49.36
56713;BME280;42589;45.536;9.032;2022-10-23T06:44:20;100228.03;;;25.47;49.31
56713;BME280;42589;45.536;9.032;2022-10-23T06:47:22;100229.13;;;25.75;49.55
56713;BME280;42589;45.536;9.032;2022-10-23T06:50:23;100236.63;;;25.68;49.35
56713;BME280;42589;45.536;9.032;2022-10-23T06:53:24;100249.88;;;25.76;48.60
56713;BME280;42589;45.536;9.032;2022-10-23T06:56:24;100241.97;;;25.63;48.20
56713;BME280;42589;45.536;9.032;2022-10-23T06:59:28;100254.63;;;26.09;48.17
56713;BME280;42589;45.536;9.032;2022-10-23T07:02:28;100263.81;;;25.91;47.65
56713;BME280;42589;45.536;9.032;2022-10-23T07:05:29;100263.69;;;25.75;49.17
56713;BME280;42589;45.536;9.032;2022-10-23T07:08:33;100274.09;;;25.37;49.32
56713;BME280;42589;45.536;9.032;2022-10-23T07:11:34;100275.13;;;25.60;48.41
56713;BME280;42589;45.536;9.032;2022-10-23T07:14:35;100264.50;;;25.35;48.95
56713;BME280;42589;45.536;9.032;2022-10-23T07:17:35;100272.06;;;25.44;48.99
56713;BME280;42589;45.536;9.032;2022-10-23T07:20:36;100260.88;;;25.81;48.23
56713;BME280;42589;45.536;9.032;2022-10-23T07:23:40;100270.09;;;25.92;47.53
56713;BME280;42589;45.536;9.032;2022-10-23T07:26:41;100274.50;;;25.81;48.46
56713;BME280;42589;45.536;9.032;2022-10-23T07:29:41;100277.28;;;26.27;46.71
56713;BME280;42589;45.536;9.032;2022-10-23T07:32:42;100290.09;;;26.26;47.03
56713;BME280;42589;45.536;9.032;2022-10-23T07:35:43;100295.06;;;26.01;46.38
56713;BME280;42589;45.536;9.032;2022-10-23T07:38:45;100314.22;;;26.34;45.59
56713;BME280;42589;45.536;9.032;2022-10-23T07:41:46;100327.53;;;26.19;45.93
56713;BME280;42589;45.536;9.032;2022-10-23T07:44:46;100322.09;;;25.67;47.39
56713;BME280;42589;45.536;9.032;2022-10-23T07:47:51;100309.00;;;26.04;47.12
56713;BME280;42589;45.536;9.032;2022-10-23T07:50:52;100320.91;;;25.86;47.03
56713;BME280;42589;45.536;9.032;2022-10-23T07:54:13;100317.09;;;26.56;46.32
56713;BME280;42589;45.536;9.032;2022-10-23T07:57:17;100319.34;;;25.90;47.20
56713;BME280;42589;45.536;9.032;2022-10-23T08:00:18;100321.56;;;26.34;47.01
56713;BME280;42589;45.536;9.032;2022-10-23T08:03:19;100314.72;;;26.60;47.05
56713;BME280;42589;45.536;9.032;2022-10-23T08:06:19;100323.31;;;26.11;46.42
56713;BME280;42589;45.536;9.032;2022-10-23T08:09:20;100323.50;;;25.81;47.65
56713;BME280;42589;45.536;9.032;2022-10-23T08:12:21;100321.28;;;25.43;48.19
56713;BME280;42589;45.536;9.032;2022-10-23T08:15:22;100318.84;;;25.93;47.05
56713;BME280;42589;45.536;9.032;2022-10-23T08:18:23;100323.63;;;25.86;47.89
56713;BME280;42589;45.536;9.032;2022-10-23T08:21:23;100323.69;;;26.32;47.23
56713;BME280;42589;45.536;9.032;2022-10-23T08:24:29;100321.13;;;26.54;47.15
56713;BME280;42589;45.536;9.032;2022-10-23T08:27:33;100319.84;;;26.16;46.77
56713;BME280;42589;45.536;9.032;2022-10-23T08:30:34;100324.59;;;25.45;48.03
56713;BME280;42589;45.536;9.032;2022-10-23T08:33:36;100325.13;;;25.94;47.21
56713;BME280;42589;45.536;9.032;2022-10-23T08:39:50;100329.69;;;25.30;48.06
56713;BME280;42589;45.536;9.032;2022-10-23T08:42:52;100326.75;;;26.07;47.10
56713;BME280;42589;45.536;9.032;2022-10-23T08:45:59;100325.22;;;26.39;46.43
56713;BME280;42589;45.536;9.032;2022-10-23T09:02:29;100326.53;;;26.66;45.76
56713;BME280;42589;45.536;9.032;2022-10-23T09:05:17;100328.31;;;26.03;47.76
56713;BME280;42589;45.536;9.032;2022-10-23T09:08:32;100326.06;;;26.00;48.25
56713;BME280;42589;45.536;9.032;2022-10-23T09:11:42;100323.22;;;26.63;46.83
56713;BME280;42589;45.536;9.032;2022-10-23T09:17:54;100339.19;;;26.89;47.21
56713;BME280;42589;45.536;9.032;2022-10-23T09:20:57;100342.75;;;26.72;46.71
56713;BME280;42589;45.536;9.032;2022-10-23T09:23:58;100339.16;;;26.26;47.59
56713;BME280;42589;45.536;9.032;2022-10-23T09:26:59;100332.34;;;26.29;48.61
56713;BME280;42589;45.536;9.032;2022-10-23T09:29:59;100331.16;;;26.36;47.55
56713;BME280;42589;45.536;9.032;2022-10-23T09:33:11;100339.91;;;26.38;47.88
56713;BME280;42589;45.536;9.032;2022-10-23T09:36:19;100326.97;;;26.74;46.74
56713;BME280;42589;45.536;9.032;2022-10-23T09:42:30;100339.16;;;26.55;46.53
56713;BME280;42589;45.536;9.032;2022-10-23T09:45:34;100340.00;;;26.72;45.81
56713;BME280;42589;45.536;9.032;2022-10-23T09:48:37;100347.25;;;27.12;45.74
56713;BME280;42589;45.536;9.032;2022-10-23T09:51:39;100332.91;;;26.71;46.82
56713;BME280;42589;45.536;9.032;2022-10-23T09:57:51;100328.94;;;26.79;47.66
56713;BME280;42589;45.536;9.032;2022-10-23T10:00:52;100338.47;;;27.10;47.42
56713;BME280;42589;45.536;9.032;2022-10-23T10:03:53;100336.34;;;27.12;46.52
56713;BME280;42589;45.536;9.032;2022-10-23T10:06:55;100353.63;;;27.18;47.16
56713;BME280;42589;45.536;9.032;2022-10-23T10:09:56;100352.59;;;27.58;45.79
56713;BME280;42589;45.536;9.032;2022-10-23T10:12:58;100344.25;;;27.47;44.28
56713;BME280;42589;45.536;9.032;2022-10-23T10:19:26;100326.19;;;27.63;44.06
56713;BME280;42589;45.536;9.032;2022-10-23T10:22:38;100330.03;;;28.06;43.03
56713;BME280;42589;45.536;9.032;2022-10-23T10:25:45;100334.72;;;26.82;45.21
56713;BME280;42589;45.536;9.032;2022-10-23T10:32:15;100330.88;;;27.29;43.85
56713;BME280;42589;45.536;9.032;2022-10-23T10:57:38;100320.44;;;27.43;43.91
56713;BME280;42589;45.536;9.032;2022-10-23T11:07:06;100320.63;;;27.97;43.38
56713;BME280;42589;45.536;9.032;2022-10-23T11:10:15;100310.34;;;27.43;44.24
56713;BME280;42589;45.536;9.032;2022-10-23T11:13:26;100318.91;;;27.52;43.97
56713;BME280;42589;45.536;9.032;2022-10-23T11:16:36;100299.50;;;27.70;44.07
56713;BME280;42589;45.536;9.032;2022-10-23T11:20:20;100294.56;;;27.67;44.33
56713;BME280;42589;45.536;9.032;2022-10-23T11:26:06;100298.13;;;28.12;43.77
56713;BME280;42589;45.536;9.032;2022-10-23T11:32:41;100282.47;;;27.80;43.74
56713;BME280;42589;45.536;9.032;2022-10-23T11:36:06;100294.09;;;27.92;44.11
56713;BME280;42589;45.536;9.032;2022-10-23T11:39:21;100302.50;;;28.13;43.04
56713;BME280;42589;45.536;9.032;2022-10-23T11:42:28;100305.50;;;28.11;43.62
56713;BME280;42589;45.536;9.032;2022-10-23T11:45:33;100284.81;;;27.33;45.53
56713;BME280;42589;45.536;9.032;2022-10-23T11:48:41;100284.59;;;27.78;44.27
56713;BME280;42589;45.536;9.032;2022-10-23T11:51:42;100283.88;;;27.83;43.82
56713;BME280;42589;45.536;9.032;2022-10-23T11:54:43;100273.81;;;27.66;44.09
56713;BME280;42589;45.536;9.032;2022-10-23T11:57:56;100272.97;;;28.10;44.03
56713;BME280;42589;45.536;9.032;2022-10-23T12:01:04;100272.81;;;28.21;43.72
56713;BME280;42589;45.536;9.032;2022-10-23T12:04:19;100269.06;;;28.28;44.06
56713;BME280;42589;45.536;9.032;2022-10-23T12:07:27;100267.81;;;28.67;42.28
56713;BME280;42589;45.536;9.032;2022-10-23T12:10:29;100271.75;;;28.82;41.58
56713;BME280;42589;45.536;9.032;2022-10-23T12:16:37;100265.19;;;28.51;42.93
56713;BME280;42589;45.536;9.032;2022-10-23T12:19:43;100269.53;;;28.74;41.91
56713;BME280;42589;45.536;9.032;2022-10-23T12:25:56;100259.53;;;28.30;43.54
56713;BME280;42589;45.536;9.032;2022-10-23T12:38:17;100246.22;;;28.39;43.43
56713;BME280;42589;45.536;9.032;2022-10-23T12:41:26;100242.59;;;27.62;45.09
56713;BME280;42589;45.536;9.032;2022-10-23T12:44:27;100247.00;;;28.07;43.93
56713;BME280;42589;45.536;9.032;2022-10-23T12:47:28;100244.69;;;28.80;42.50
56713;BME280;42589;45.536;9.032;2022-10-23T12:50:30;100245.88;;;28.35;44.38
56713;BME280;42589;45.536;9.032;2022-10-23T12:53:31;100253.66;;;28.16;44.68
56713;BME280;42589;45.536;9.032;2022-10-23T12:56:35;100247.25;;;28.06;46.44
56713;BME280;42589;45.536;9.032;2022-10-23T12:59:37;100247.47;;;27.77;46.09
56713;BME280;42589;45.536;9.032;2022-10-23T13:02:38;100242.03;;;28.04;45.83
56713;BME280;42589;45.536;9.032;2022-10-23T13:05:38;100233.13;;;28.14;45.31
56713;BME280;42589;45.536;9.032;2022-10-23T13:08:40;100216.97;;;27.41;47.40
56713;BME280;42589;45.536;9.032;2022-10-23T13:11:42;100207.63;;;28.35;45.33
56713;BME280;42589;45.536;9.032;2022-10-23T13:18:03;100200.16;;;28.26;46.47
56713;BME280;42589;45.536;9.032;2022-10-23T13:21:03;100201.03;;;28.63;44.62
56713;BME280;42589;45.536;9.032;2022-10-23T13:24:15;100196.34;;;27.99;46.02
56713;BME280;42589;45.536;9.032;2022-10-23T13:27:51;100204.56;;;28.27;45.64
56713;BME280;42589;45.536;9.032;2022-10-23T13:30:45;100200.09;;;28.48;44.70
56713;BME280;42589;45.536;9.032;2022-10-23T13:37:01;100208.69;;;28.29;45.12
56713;BME280;42589;45.536;9.032;2022-10-23T13:40:04;100201.41;;;27.86;46.62
56713;BME280;42589;45.536;9.032;2022-10-23T13:43:07;100199.41;;;28.35;45.87
56713;BME280;42589;45.536;9.032;2022-10-23T13:46:13;100195.66;;;28.41;45.45
56713;BME280;42589;45.536;9.032;2022-10-23T13:49:14;100199.91;;;28.27;45.98
56713;BME280;42589;45.536;9.032;2022-10-23T13:52:16;100182.16;;;27.75;46.80
56713;BME280;42589;45.536;9.032;2022-10-23T13:55:21;100181.25;;;27.70;47.20
56713;BME280;42589;45.536;9.032;2022-10-23T13:58:23;100182.59;;;26.84;48.64
56713;BME280;42589;45.536;9.032;2022-10-23T14:01:28;100183.72;;;28.20;46.57
56713;BME280;42589;45.536;9.032;2022-10-23T14:04:29;100187.25;;;27.89;46.38
56713;BME280;42589;45.536;9.032;2022-10-23T14:07:29;100195.19;;;28.22;46.30
56713;BME280;42589;45.536;9.032;2022-10-23T14:10:30;100184.91;;;28.03;45.85
56713;BME280;42589;45.536;9.032;2022-10-23T14:13:30;100183.84;;;28.36;45.33
56713;BME280;42589;45.536;9.032;2022-10-23T14:16:31;100186.06;;;28.39;45.85
56713;BME280;42589;45.536;9.032;2022-10-23T14:19:32;100189.44;;;28.46;44.72
56713;BME280;42589;45.536;9.032;2022-10-23T14:22:32;100197.34;;;27.88;46.06
56713;BME280;42589;45.536;9.032;2022-10-23T14:25:34;100192.72;;;27.94;45.65
56713;BME280;42589;45.536;9.032;2022-10-23T14:28:35;100191.31;;;27.64;46.93
56713;BME280;42589;45.536;9.032;2022-10-23T14:31:35;100184.13;;;27.58;47.48
56713;BME280;42589;45.536;9.032;2022-10-23T14:34:40;100181.66;;;27.79;46.34
56713;BME280;42589;45.536;9.032;2022-10-23T14:37:42;100172.34;;;28.02;46.01
56713;BME280;42589;45.536;9.032;2022-10-23T14:40:43;100178.75;;;27.63;46.85
56713;BME280;42589;45.536;9.032;2022-10-23T14:43:43;100168.56;;;27.81;46.78
56713;BME280;42589;45.536;9.032;2022-10-23T14:46:44;100165.84;;;27.59;46.92
56713;BME280;42589;45.536;9.032;2022-10-23T14:49:47;100173.50;;;27.62;47.52
56713;BME280;42589;45.536;9.032;2022-10-23T14:53:07;100176.03;;;27.90;46.85
56713;BME280;42589;45.536;9.032;2022-10-23T14:56:08;100174.75;;;27.98;46.35
56713;BME280;42589;45.536;9.032;2022-10-23T14:59:09;100174.47;;;27.94;46.62
56713;BME280;42589;45.536;9.032;2022-10-23T15:02:10;100178.16;;;28.10;46.39
56713;BME280;42589;45.536;9.032;2022-10-23T15:05:11;100175.53;;;27.71;46.44
56713;BME280;42589;45.536;9.032;2022-10-23T15:08:12;100169.91;;;28.05;46.23
56713;BME280;42589;45.536;9.032;2022-10-23T15:11:12;100173.66;;;28.26;46.24
56713;BME280;42589;45.536;9.032;2022-10-23T15:14:13;100171.75;;;28.27;46.19
56713;BME280;42589;45.536;9.032;2022-10-23T15:17:14;100169.38;;;27.81;46.61
56713;BME280;42589;45.536;9.032;2022-10-23T15:20:14;100161.78;;;27.39;48.21
56713;BME280;42589;45.536;9.032;2022-10-23T15:23:15;100164.91;;;27.48;48.50
56713;BME280;42589;45.536;9.032;2022-10-23T15:26:17;100157.34;;;27.33;49.47
56713;BME280;42589;45.536;9.032;2022-10-23T15:29:21;100173.09;;;26.87;50.34
56713;BME280;42589;45.536;9.032;2022-10-23T15:32:22;100166.22;;;27.45;48.55
56713;BME280;42589;45.536;9.032;2022-10-23T15:35:23;100171.25;;;27.31;49.21
56713;BME280;42589;45.536;9.032;2022-10-23T15:38:23;100168.22;;;26.22;51.61
56713;BME280;42589;45.536;9.032;2022-10-23T15:41:30;100177.00;;;27.13;50.06
56713;BME280;42589;45.536;9.032;2022-10-23T15:44:31;100178.88;;;27.51;48.83
56713;BME280;42589;45.536;9.032;2022-10-23T15:47:32;100163.31;;;27.30;49.17
56713;BME280;42589;45.536;9.032;2022-10-23T15:50:33;100156.53;;;26.94;49.72
56713;BME280;42589;45.536;9.032;2022-10-23T15:53:34;100158.88;;;27.46;49.11
56713;BME280;42589;45.536;9.032;2022-10-23T15:56:36;100161.41;;;27.52;48.31
56713;BME280;42589;45.536;9.032;2022-10-23T15:59:36;100157.53;;;27.48;49.06
56713;BME280;42589;45.536;9.032;2022-10-23T16:02:38;100166.00;;;27.25;49.16
56713;BME280;42589;45.536;9.032;2022-10-23T16:05:38;100162.41;;;27.46;49.02
56713;BME280;42589;45.536;9.032;2022-10-23T16:08:39;100168.97;;;27.23;49.10
56713;BME280;42589;45.536;9.032;2022-10-23T16:11:43;100174.88;;;27.37;48.67
56713;BME280;42589;45.536;9.032;2022-10-23T16:14:43;100178.16;;;27.39;49.38
56713;BME280;42589;45.536;9.032;2022-10-23T16:17:44;100172.47;;;27.41;49.04
56713;BME280;42589;45.536;9.032;2022-10-23T16:20:45;100166.63;;;27.54;48.65
56713;BME280;42589;45.536;9.032;2022-10-23T16:23:46;100157.28;;;27.50;48.95
56713;BME280;42589;45.536;9.032;2022-10-23T16:26:46;100163.31;;;27.52;48.84
56713;BME280;42589;45.536;9.032;2022-10-23T16:29:51;100149.28;;;27.43;49.61
56713;BME280;42589;45.536;9.032;2022-10-23T16:32:55;100150.97;;;27.49;49.16
56713;BME280;42589;45.536;9.032;2022-10-23T16:36:00;100151.31;;;27.53;48.22
56713;BME280;42589;45.536;9.032;2022-10-23T16:39:02;100155.31;;;27.45;49.10
56713;BME280;42589;45.536;9.032;2022-10-23T16:42:03;100147.22;;;27.55;48.50
56713;BME280;42589;45.536;9.032;2022-10-23T16:45:03;100159.31;;;26.99;49.95
56713;BME280;42589;45.536;9.032;2022-10-23T16:48:04;100155.81;;;26.48;52.55
56713;BME280;42589;45.536;9.032;2022-10-23T16:51:07;100166.00;;;27.08;49.86
56713;BME280;42589;45.536;9.032;2022-10-23T16:54:08;100163.22;;;27.03;49.11
56713;BME280;42589;45.536;9.032;2022-10-23T16:57:08;100158.66;;;27.08;50.51
56713;BME280;42589;45.536;9.032;2022-10-23T17:00:08;100155.22;;;26.96;50.55
56713;BME280;42589;45.536;9.032;2022-10-23T17:03:09;100153.53;;;27.12;49.72
56713;BME280;42589;45.536;9.032;2022-10-23T17:06:11;100159.09;;;27.00;49.86
56713;BME280;42589;45.536;9.032;2022-10-23T17:09:13;100166.94;;;27.36;48.86
56713;BME280;42589;45.536;9.032;2022-10-23T17:12:14;100175.94;;;27.58;48.62
56713;BME280;42589;45.536;9.032;2022-10-23T17:15:15;100176.03;;;27.68;48.12
56713;BME280;42589;45.536;9.032;2022-10-23T17:18:15;100184.81;;;27.70;48.11
56713;BME280;42589;45.536;9.032;2022-10-23T17:21:17;100177.06;;;26.79;49.93
56713;BME280;42589;45.536;9.032;2022-10-23T17:24:18;100185.50;;;24.59;55.65
56713;BME280;42589;45.536;9.032;2022-10-23T17:27:19;100177.59;;;25.16;54.02
56713;BME280;42589;45.536;9.032;2022-10-23T17:30:20;100187.75;;;25.21;55.32
56713;BME280;42589;45.536;9.032;2022-10-23T17:33:20;100188.34;;;25.63;53.57
56713;BME280;42589;45.536;9.032;2022-10-23T17:36:21;100184.44;;;25.59;52.21
56713;BME280;42589;45.536;9.032;2022-10-23T17:39:24;100186.56;;;26.26;51.52
56713;BME280;42589;45.536;9.032;2022-10-23T17:42:32;100187.75;;;26.02;52.22
56713;BME280;42589;45.536;9.032;2022-10-23T17:45:33;100196.69;;;26.14;51.13
56713;BME280;42589;45.536;9.032;2022-10-23T17:48:35;100201.06;;;26.32;51.35
56713;BME280;42589;45.536;9.032;2022-10-23T17:51:35;100195.72;;;26.37;50.45